Welcome to the Virtual Washington ARTCC
Home of the first flight and the oldest continuously operating airport in the world, the airspace controlled by the Washington ARTCC is rich in history. With three major airports within 30 miles of the nation's capital, ZDC controllers handle some of the most complex airspace in the country.

From the Carolinas up to New Jersey, including the busy arrival streams from the southeast into the three New York airports and Philadelphia, overflights to and from Boston, and the equally busy traffic flows to Atlanta, there is always something interesting going on at the Washington ARTCC.
Rick Rump
Air Traffic Manager
ZDC Top Controllers
Top Controllers for June 2016:
Sarchiapone, Josh - 43.84
Pham, Gia - 27.29
Holcomb, Ethan - 12.37
Baumgaertner, Benjamin - 8.64
King, Brad - 5.55
Member of

Current Conditions & Major Field Configuration
AirportWindKnotsOPERATIONSMETAR
KBWI250328(D) 33L(A) 33R(A/D)-PROPS KBWI 270854Z 25003KT 10SM SCT110 BKN150 BKN200 26/21 A2992 RMK AO2 SLP131 T02610211 55001
KDCA000019 (D/A) 15 (D/A)-RJ/PROPS KDCA 270852Z 00000KT 10SM FEW120 BKN140 OVC250 28/22 A2993 RMK AO2 SLP135 T02780222 55003
KIAD000030 (D) 19L/19C/19R (A) KIAD 270852Z 00000KT 10SM SCT170 BKN200 26/22 A2994 RMK AO2 SLP136 T02560222 55004
KRDU000023L/23R (D/A) KRDU 270851Z 00000KT 10SM FEW180 BKN250 26/24 A2996 RMK AO2 SLP139 T02560239 55010


Controllers Online
No ZDC Controllers Online
Current ZDC Activity

Name:Callsign:Aircraft:Departing:Arriving:
Walter Sprinkle KDCAFDX007777/KMIAKIAD
Joshua Welte KSFOVOZ538B773KMIAKIAD
Jamie Buchanan EGCCJIA5133B737KDCAKCVG